Selibe-Phikwe, Botswana

6:31 AM CAT on September 03, 2015 (GMT +0200)
Selebi-Phikwe | | Change Station
CLOSE
Current Station
Airport
Location: Selibe-Phikwe,
Elevation: 2927 ft
Nearby Weather Stations

Elev 2927 ft 22.06 °S, 27.83 °E | Updated 31 minutes ago

Overcast
Overcast
64 °F
Feels Like 64 °F
N
21
Wind Variable Wind from East

Today
High -- | Low -- °F
--% Chance of Precip.
Yesterday
High -- | Low -- °F
Precip. -- in
6:17 AM 5:59 PM
Waning Gibbous, 74% visible
Pressure 30.15 in
Visibility 6.2 miles
Clouds Overcast 2500 ft
Dew Point 59 °F
Humidity 83%
Rainfall 0.00 in
Snow Depth Not available.
UV 0 out of 12
Pollen Not available.
Air Quality Not available.
Flu Activity Not available.
METAR FBSP 030400Z 09018KT 9999 OVC025 18/15 Q1021
Pressure 30.15 in
Visibility 6.2 miles
Clouds Overcast 2500 ft
Dew Point 59 °F
Humidity 83%
Rainfall 0.00 in
Snow Depth Not available.
UV 0 out of 12
Pollen Not available.
Air Quality Not available.
Flu Activity Not available.
METAR FBSP 030400Z 09018KT 9999 OVC025 18/15 Q1021

10-Day Weather Forecast

×

Almanac

Astronomy

Sep. 03, 2015 Rise Set
Actual Time
Civil Twilight
Nautical Twilight
Astronomical Twilight
Moon
Length of Visible Light
Length of Day
Tomorrow will be .
, % of the Moon is Illuminated

Today's Extremes

Country Highs Country Lows

Community

WunderPhotos

Upload Photos

1,851,913 photos uploaded!

WunderBlogs® & News

Nearby

Air Quality

  Air Quality AQ Index Pollutant
Not available.

Snow Depth

Station Depth Elevation

Earthquake Activity

City Distance Mag. Time & Date
Minimum magnitude displayed is 2.5.

Coastal Water Temperatures

Place Temperature

Stations

Nearby Weather Stations

Station Location Temp. Windchill Dew Point Humidity Wind Precip. Elev Updated Type